Time;durP1;ratioP1;P1;durP2;ratioP2;P2;SDS_P1;SDS_P2;PMS_P1;PMS_P2;Temp;Humidity;BMP_temperature;BMP_pressure;BME280_temperature;BME280_humidity;BME280_pressure;Samples;Min_cycle;Max_cycle;Signal;HPM_P1;HPM_P2
2023/08/21 00:01:30;;;;;;;3.92;0.90;;;25.50;89.40;;;;;;5028915;28;20819;-66
2023/08/21 00:03:56;;;;;;;3.90;1.33;;;25.50;89.50;;;;;;5029864;28;20132;-66
2023/08/21 00:06:22;;;;;;;5.70;1.27;;;25.50;89.50;;;;;;5029848;28;20041;-66
2023/08/21 00:08:47;;;;;;;4.07;0.85;;;25.50;89.50;;;;;;5029937;28;20021;-66
2023/08/21 00:11:13;;;;;;;4.00;1.55;;;25.50;89.60;;;;;;5029902;28;20052;-66
2023/08/21 00:13:38;;;;;;;4.22;1.60;;;25.50;89.60;;;;;;5029519;28;20042;-66
2023/08/21 00:16:04;;;;;;;3.85;1.20;;;25.50;89.70;;;;;;5030403;28;20108;-66
2023/08/21 00:18:29;;;;;;;2.65;0.82;;;25.50;89.70;;;;;;5030159;28;20029;-66
2023/08/21 00:20:55;;;;;;;4.07;0.93;;;25.50;89.70;;;;;;5029737;28;20032;-67
2023/08/21 00:23:21;;;;;;;4.05;1.13;;;25.50;89.70;;;;;;5029332;28;20074;-67
2023/08/21 00:25:47;;;;;;;3.53;0.90;;;25.50;89.70;;;;;;5028491;28;20479;-67
2023/08/21 00:28:13;;;;;;;3.42;1.00;;;25.50;89.80;;;;;;5029547;28;20040;-67
2023/08/21 00:30:39;;;;;;;5.63;1.10;;;25.40;89.70;;;;;;5029890;28;20029;-67
2023/08/21 00:33:05;;;;;;;3.53;1.13;;;25.40;89.70;;;;;;5029900;28;20036;-67
2023/08/21 00:35:30;;;;;;;3.50;1.20;;;25.40;89.80;;;;;;5029534;28;20018;-66
2023/08/21 00:37:56;;;;;;;4.03;1.08;;;25.40;89.80;;;;;;5029152;28;20108;-67
2023/08/21 00:40:22;;;;;;;2.85;0.80;;;25.40;89.80;;;;;;5029957;28;20119;-67
2023/08/21 00:42:48;;;;;;;3.55;1.08;;;25.40;89.80;;;;;;5028460;28;20033;-67
2023/08/21 00:45:14;;;;;;;4.95;1.27;;;25.40;89.90;;;;;;5029425;28;20026;-67
2023/08/21 00:47:40;;;;;;;6.00;1.08;;;25.40;89.90;;;;;;5029562;28;20029;-66
2023/08/21 00:50:07;;;;;;;3.47;0.90;;;25.40;89.90;;;;;;5029129;28;20195;-67
2023/08/21 00:52:34;;;;;;;4.05;1.05;;;25.40;90.10;;;;;;5029408;28;20053;-66
2023/08/21 00:55:00;;;;;;;2.50;1.00;;;25.40;90.00;;;;;;5029310;28;20029;-67
2023/08/21 00:57:26;;;;;;;4.57;1.20;;;25.40;90.00;;;;;;5029026;28;20052;-66
2023/08/21 00:59:52;;;;;;;1.88;0.57;;;25.40;90.00;;;;;;5027709;28;20099;-66
2023/08/21 01:02:19;;;;;;;3.25;1.05;;;25.40;90.00;;;;;;5029063;28;20029;-66
2023/08/21 01:04:44;;;;;;;4.55;1.00;;;25.40;90.00;;;;;;5029279;28;20018;-67
2023/08/21 01:07:10;;;;;;;3.63;1.00;;;25.40;90.00;;;;;;5028978;28;20052;-67
2023/08/21 01:09:45;;;;;;;2.00;0.75;;;25.40;90.10;;;;;;5029693;28;20151;-66
2023/08/21 01:12:36;;;;;;;4.57;0.77;;;25.40;90.10;;;;;;5028703;28;20033;-67
2023/08/21 01:15:06;;;;;;;2.92;1.15;;;25.40;90.10;;;;;;5028676;28;20057;-66
2023/08/21 01:17:35;;;;;;;3.30;1.08;;;25.40;90.10;;;;;;5028790;28;20022;-67
2023/08/21 01:20:02;;;;;;;3.65;0.90;;;25.40;90.10;;;;;;5028721;28;20171;-67
2023/08/21 01:22:39;;;;;;;5.55;1.45;;;25.40;90.10;;;;;;5028667;28;20029;-67
2023/08/21 01:25:05;;;;;;;2.03;0.70;;;25.40;90.10;;;;;;5028801;28;20013;-65
2023/08/21 01:27:33;;;;;;;4.20;1.55;;;25.40;90.20;;;;;;5029028;28;20056;-67
2023/08/21 01:29:59;;;;;;;4.82;1.10;;;25.40;90.20;;;;;;5029201;28;20029;-68
2023/08/21 01:32:51;;;;;;;5.72;1.38;;;25.30;90.10;;;;;;5028922;28;20069;-68
2023/08/21 01:35:17;;;;;;;3.55;1.08;;;25.30;90.10;;;;;;5029044;28;20022;-68
2023/08/21 01:37:44;;;;;;;3.47;1.20;;;25.30;90.10;;;;;;5029251;28;20029;-68
2023/08/21 01:40:10;;;;;;;3.72;0.98;;;25.30;90.20;;;;;;5028815;28;20068;-68
2023/08/21 01:42:36;;;;;;;5.22;1.20;;;25.30;90.20;;;;;;5029395;28;20061;-68
2023/08/21 01:45:02;;;;;;;5.05;1.20;;;25.30;90.20;;;;;;5028783;28;20049;-68
2023/08/21 01:47:28;;;;;;;2.50;0.95;;;25.30;90.20;;;;;;5028843;28;20033;-68
2023/08/21 01:49:53;;;;;;;3.75;1.08;;;25.30;90.20;;;;;;5028739;28;20029;-68
2023/08/21 01:52:19;;;;;;;3.10;1.00;;;25.30;90.20;;;;;;5028390;28;20080;-68
2023/08/21 01:54:47;;;;;;;4.22;1.13;;;25.30;90.20;;;;;;5028465;28;20026;-67
2023/08/21 01:57:13;;;;;;;4.95;1.00;;;25.30;90.20;;;;;;5028751;28;20492;-68
2023/08/21 01:59:39;;;;;;;3.95;1.00;;;25.30;90.20;;;;;;5028658;28;20033;-68
2023/08/21 02:02:04;;;;;;;3.80;1.02;;;25.20;90.20;;;;;;5027002;28;20031;-68
2023/08/21 02:04:30;;;;;;;5.60;1.23;;;25.20;90.20;;;;;;5028504;28;20026;-68
2023/08/21 02:06:56;;;;;;;3.30;1.23;;;25.20;90.20;;;;;;5028567;28;20022;-66
2023/08/21 02:09:21;;;;;;;6.32;1.00;;;25.20;90.30;;;;;;5027995;28;20031;-68
2023/08/21 02:11:47;;;;;;;3.45;0.80;;;25.20;90.20;;;;;;5028755;28;20026;-68
2023/08/21 02:14:12;;;;;;;4.20;1.00;;;25.20;90.20;;;;;;5028356;28;20022;-68
2023/08/21 02:16:38;;;;;;;3.47;0.90;;;25.20;90.20;;;;;;5028964;28;20029;-68
2023/08/21 02:19:04;;;;;;;2.30;0.75;;;25.20;90.20;;;;;;5028630;28;20025;-67
2023/08/21 02:21:29;;;;;;;2.65;1.02;;;25.20;90.20;;;;;;5028485;28;20032;-67
2023/08/21 02:23:55;;;;;;;3.38;1.10;;;25.20;90.20;;;;;;5028453;28;20025;-68
2023/08/21 02:26:20;;;;;;;4.25;1.30;;;25.20;90.30;;;;;;5027735;28;20109;-67
2023/08/21 02:28:46;;;;;;;2.90;1.05;;;25.20;90.30;;;;;;5031462;28;20036;-68
2023/08/21 02:31:12;;;;;;;1.95;0.63;;;25.20;90.30;;;;;;5031906;28;20472;-68
2023/08/21 02:33:38;;;;;;;3.10;0.80;;;25.20;90.30;;;;;;5031526;28;20049;-68
2023/08/21 02:36:03;;;;;;;2.55;0.73;;;25.20;90.30;;;;;;5031741;28;20448;-68
2023/08/21 02:38:29;;;;;;;3.05;1.10;;;25.10;90.30;;;;;;5031999;28;20033;-68
2023/08/21 02:40:55;;;;;;;4.70;0.98;;;25.10;90.30;;;;;;5031468;28;20037;-65
2023/08/21 02:43:20;;;;;;;2.45;0.70;;;25.20;90.30;;;;;;5031326;28;20040;-68
2023/08/21 02:45:46;;;;;;;1.80;0.60;;;25.10;90.30;;;;;;5031952;28;20029;-68
2023/08/21 02:48:12;;;;;;;4.22;1.27;;;25.10;90.30;;;;;;5029810;28;20119;-68
2023/08/21 02:50:37;;;;;;;2.60;0.70;;;25.10;90.60;;;;;;5031494;28;20073;-68
2023/08/21 02:53:03;;;;;;;2.80;0.88;;;25.10;90.30;;;;;;5029932;28;20057;-68
2023/08/21 02:55:29;;;;;;;4.40;0.80;;;25.10;90.30;;;;;;5031134;28;20487;-67
2023/08/21 02:57:54;;;;;;;3.25;0.90;;;25.10;90.30;;;;;;5030107;28;20030;-68
2023/08/21 03:00:20;;;;;;;3.40;0.80;;;25.10;90.30;;;;;;5030973;28;20056;-67
2023/08/21 03:02:45;;;;;;;3.10;0.68;;;25.10;90.40;;;;;;5031144;28;20096;-68
2023/08/21 03:05:11;;;;;;;4.38;0.90;;;25.10;90.40;;;;;;5031348;28;20072;-68
2023/08/21 03:07:37;;;;;;;3.78;0.90;;;25.10;90.40;;;;;;5031497;28;20395;-68
2023/08/21 03:10:03;;;;;;;2.80;0.73;;;25.10;90.40;;;;;;5030798;28;20487;-68
2023/08/21 03:12:28;;;;;;;3.70;1.05;;;25.00;90.40;;;;;;5030541;28;20041;-68
2023/08/21 03:14:54;;;;;;;3.72;1.25;;;25.00;90.40;;;;;;5030880;28;20059;-68
2023/08/21 03:17:19;;;;;;;2.05;0.73;;;25.00;90.50;;;;;;5030723;28;20033;-67
2023/08/21 03:19:45;;;;;;;2.42;0.75;;;25.10;90.50;;;;;;5030866;28;20029;-67
2023/08/21 03:22:11;;;;;;;4.18;1.20;;;25.00;90.50;;;;;;5029546;28;20022;-67
2023/08/21 03:24:37;;;;;;;3.47;0.93;;;25.00;90.50;;;;;;5031123;28;20017;-67
2023/08/21 03:27:02;;;;;;;5.03;1.42;;;25.00;90.80;;;;;;5030593;28;20030;-67
2023/08/21 03:29:28;;;;;;;2.67;0.93;;;25.00;90.50;;;;;;5030833;28;20087;-67
2023/08/21 03:31:57;;;;;;;4.45;0.73;;;25.00;90.50;;;;;;5030363;28;20022;-67
2023/08/21 03:34:22;;;;;;;2.67;0.80;;;25.00;90.50;;;;;;5030624;28;20021;-67
2023/08/21 03:36:48;;;;;;;3.58;0.90;;;25.00;90.60;;;;;;5030745;28;20449;-65
2023/08/21 03:39:14;;;;;;;2.58;0.80;;;25.00;90.50;;;;;;5030327;28;20038;-65
2023/08/21 03:41:39;;;;;;;3.67;0.82;;;24.90;90.50;;;;;;5030493;28;20026;-68
2023/08/21 03:44:05;;;;;;;4.97;1.48;;;25.00;90.60;;;;;;5030214;28;20110;-65
2023/08/21 03:46:31;;;;;;;2.90;0.85;;;25.00;90.60;;;;;;5030796;28;20397;-65
2023/08/21 03:48:56;;;;;;;2.40;0.80;;;25.00;90.60;;;;;;5030538;28;20020;-65
2023/08/21 03:51:22;;;;;;;4.50;1.30;;;24.90;90.60;;;;;;5029809;28;20479;-65
2023/08/21 03:53:48;;;;;;;5.05;1.17;;;24.90;90.60;;;;;;5028858;28;20517;-68
2023/08/21 03:56:13;;;;;;;6.63;1.20;;;24.90;90.60;;;;;;5030284;28;20040;-67
2023/08/21 03:58:39;;;;;;;2.80;0.82;;;24.90;90.60;;;;;;5030083;28;20068;-67
2023/08/21 04:01:04;;;;;;;3.85;0.95;;;24.90;90.60;;;;;;5030316;28;20025;-67
2023/08/21 04:03:30;;;;;;;4.05;1.10;;;24.90;90.60;;;;;;5030132;28;20033;-67
2023/08/21 04:05:56;;;;;;;4.82;1.20;;;24.90;90.60;;;;;;5029925;28;20029;-67
2023/08/21 04:08:22;;;;;;;3.58;0.90;;;24.90;90.60;;;;;;5030260;28;20024;-67
2023/08/21 04:10:48;;;;;;;2.03;0.70;;;24.90;90.60;;;;;;5030110;28;20032;-67
2023/08/21 04:13:13;;;;;;;3.50;0.95;;;24.90;90.60;;;;;;5029689;28;20045;-68
2023/08/21 04:15:44;;;;;;;4.18;1.00;;;24.90;90.60;;;;;;5030079;28;20064;-67
2023/08/21 04:18:12;;;;;;;4.72;0.82;;;24.90;90.60;;;;;;5028824;28;20864;-68
2023/08/21 04:20:38;;;;;;;3.53;0.90;;;24.80;90.60;;;;;;5030355;28;20053;-67
2023/08/21 04:23:03;;;;;;;3.22;0.70;;;24.80;90.60;;;;;;5029783;28;20021;-68
2023/08/21 04:25:29;;;;;;;2.92;0.77;;;24.70;90.60;;;;;;5029848;28;20030;-68
2023/08/21 04:27:55;;;;;;;3.28;1.00;;;24.70;90.70;;;;;;5028388;28;20032;-67
2023/08/21 04:30:20;;;;;;;3.53;0.80;;;24.80;90.70;;;;;;5029067;28;20028;-65
2023/08/21 04:32:47;;;;;;;3.90;0.90;;;24.80;90.70;;;;;;5029262;28;20546;-66
2023/08/21 04:35:12;;;;;;;3.08;0.65;;;24.70;90.70;;;;;;5029533;28;20021;-65
2023/08/21 04:37:44;;;;;;;4.30;0.80;;;24.80;90.70;;;;;;5029594;28;20077;-65
2023/08/21 04:40:10;;;;;;;2.22;0.80;;;24.70;90.70;;;;;;5029686;28;20537;-65
2023/08/21 04:42:36;;;;;;;3.55;0.75;;;24.70;90.60;;;;;;5029755;28;20429;-65
2023/08/21 04:45:02;;;;;;;4.35;0.85;;;24.70;90.60;;;;;;5029190;28;20116;-67
2023/08/21 04:47:28;;;;;;;4.82;0.93;;;24.70;90.60;;;;;;5029218;28;20085;-66
2023/08/21 04:49:54;;;;;;;4.57;0.88;;;24.70;90.60;;;;;;5027266;28;20468;-65
2023/08/21 04:52:21;;;;;;;4.68;0.70;;;24.70;90.60;;;;;;5028999;28;20053;-66
2023/08/21 04:54:48;;;;;;;3.83;1.13;;;24.70;90.60;;;;;;5028069;28;20017;-65
2023/08/21 04:57:14;;;;;;;3.90;1.25;;;24.70;90.60;;;;;;5028134;28;20066;-65
2023/08/21 04:59:39;;;;;;;8.50;1.10;;;24.70;90.60;;;;;;5018618;28;20387;-65
2023/08/21 05:02:05;;;;;;;11.40;1.80;;;24.70;90.90;;;;;;5029306;28;20025;-66
2023/08/21 05:04:30;;;;;;;8.30;1.38;;;24.70;91.20;;;;;;5028011;28;20113;-66
2023/08/21 05:06:56;;;;;;;7.25;1.52;;;24.70;91.00;;;;;;5028827;28;20034;-65
2023/08/21 05:09:22;;;;;;;6.22;1.42;;;24.70;91.10;;;;;;5027847;28;20030;-66
2023/08/21 05:11:47;;;;;;;3.95;1.20;;;24.70;91.10;;;;;;5029066;28;20079;-66
2023/08/21 05:14:13;;;;;;;8.43;1.20;;;24.70;91.10;;;;;;5029080;28;20055;-66
2023/08/21 05:16:38;;;;;;;6.43;1.27;;;24.70;91.20;;;;;;5029345;28;20029;-66
2023/08/21 05:19:04;;;;;;;8.57;1.17;;;24.80;91.20;;;;;;5029210;28;20070;-66
2023/08/21 05:21:30;;;;;;;7.53;1.27;;;24.80;91.20;;;;;;5028737;28;20022;-66
2023/08/21 05:23:55;;;;;;;6.93;1.55;;;24.80;91.30;;;;;;5029363;28;20053;-66
2023/08/21 05:26:22;;;;;;;3.15;0.80;;;24.90;91.30;;;;;;5028973;28;20064;-66
2023/08/21 05:28:47;;;;;;;4.47;0.95;;;24.90;91.40;;;;;;5029006;28;20032;-67
2023/08/21 05:31:13;;;;;;;6.28;1.30;;;24.90;91.40;;;;;;5028360;28;20022;-67
2023/08/21 05:33:38;;;;;;;10.85;1.23;;;24.90;91.50;;;;;;5029050;28;20038;-66
2023/08/21 05:36:05;;;;;;;10.38;1.95;;;24.90;91.50;;;;;;5028355;28;20071;-67
2023/08/21 05:38:30;;;;;;;12.40;1.58;;;25.00;91.40;;;;;;5028962;28;20496;-66
2023/08/21 05:40:56;;;;;;;12.60;1.20;;;25.00;91.50;;;;;;5027232;28;20036;-66
2023/08/21 05:43:21;;;;;;;17.52;1.60;;;24.90;91.50;;;;;;5028672;28;20033;-66
2023/08/21 05:45:47;;;;;;;14.57;1.73;;;25.00;91.60;;;;;;5028854;28;20028;-67
2023/08/21 05:48:13;;;;;;;20.88;2.13;;;25.00;91.60;;;;;;5028810;28;20017;-67
2023/08/21 05:50:39;;;;;;;15.48;2.17;;;25.00;91.70;;;;;;5027920;28;20052;-66
2023/08/21 05:53:05;;;;;;;21.00;2.47;;;25.00;91.60;;;;;;5028344;28;20076;-66
2023/08/21 05:55:31;;;;;;;16.42;2.20;;;25.00;91.70;;;;;;5028251;28;20430;-67
2023/08/21 05:57:57;;;;;;;9.80;2.10;;;25.00;91.80;;;;;;5014200;28;20026;-67
2023/08/21 06:00:22;;;;;;;16.52;2.15;;;25.00;91.30;;;;;;5008813;28;20491;-65
2023/08/21 06:02:48;;;;;;;11.50;2.97;;;25.00;91.30;;;;;;5012778;28;20030;-65
2023/08/21 06:05:14;;;;;;;8.57;2.15;;;24.90;91.20;;;;;;5020917;28;20025;-65
2023/08/21 06:07:43;;;;;;;10.15;2.15;;;24.90;91.10;;;;;;5027908;28;20115;-66
2023/08/21 06:10:11;;;;;;;10.40;2.08;;;24.90;91.00;;;;;;5019376;28;20028;-65
2023/08/21 06:12:37;;;;;;;7.05;1.55;;;25.00;91.00;;;;;;5032031;28;20116;-66
2023/08/21 06:15:03;;;;;;;7.45;1.58;;;25.00;90.90;;;;;;5029903;28;20136;-66
2023/08/21 06:17:29;;;;;;;6.05;1.30;;;25.00;91.00;;;;;;5032266;28;20026;-65
2023/08/21 06:19:55;;;;;;;9.38;1.67;;;25.00;91.00;;;;;;5031538;28;20037;-65
2023/08/21 06:22:21;;;;;;;6.47;1.30;;;25.00;91.00;;;;;;5031502;28;20044;-64
2023/08/21 06:24:46;;;;;;;7.28;1.70;;;25.00;91.00;;;;;;5031692;28;20395;-65
2023/08/21 06:27:12;;;;;;;6.90;1.35;;;25.00;91.00;;;;;;5030529;28;20040;-65
2023/08/21 06:29:37;;;;;;;5.18;1.17;;;25.00;91.00;;;;;;5031812;28;20013;-65
2023/08/21 06:32:03;;;;;;;7.47;1.45;;;24.90;90.90;;;;;;5030467;28;20332;-66
2023/08/21 06:34:29;;;;;;;7.72;1.42;;;24.90;90.90;;;;;;5031810;28;20068;-65
2023/08/21 06:36:54;;;;;;;4.80;1.45;;;24.90;90.90;;;;;;5030752;28;20044;-65
2023/08/21 06:39:20;;;;;;;6.97;1.30;;;24.90;90.90;;;;;;5029579;28;20065;-65
2023/08/21 06:41:45;;;;;;;5.35;1.67;;;24.90;90.80;;;;;;5029881;28;20025;-66
2023/08/21 06:44:11;;;;;;;2.30;1.00;;;24.90;90.80;;;;;;5029980;28;20087;-66
2023/08/21 06:46:37;;;;;;;10.45;1.67;;;24.90;90.80;;;;;;5029486;28;20037;-66
2023/08/21 06:49:03;;;;;;;6.07;1.30;;;25.00;90.80;;;;;;5030047;28;20021;-66
2023/08/21 06:51:29;;;;;;;6.88;1.08;;;25.00;90.80;;;;;;5029743;28;20025;-66
2023/08/21 06:53:54;;;;;;;4.00;1.13;;;24.90;90.80;;;;;;5031192;28;20503;-67
2023/08/21 06:56:20;;;;;;;6.72;1.15;;;24.90;90.80;;;;;;5031154;28;20029;-66
2023/08/21 06:58:45;;;;;;;6.38;1.52;;;24.90;90.80;;;;;;5030791;28;20036;-66
2023/08/21 07:01:11;;;;;;;7.45;1.23;;;24.90;90.80;;;;;;5029228;28;20067;-66
2023/08/21 07:03:36;;;;;;;5.53;1.10;;;24.90;90.80;;;;;;5029634;28;20025;-66
2023/08/21 07:06:02;;;;;;;4.50;0.90;;;24.90;90.80;;;;;;5031259;28;20084;-66
2023/08/21 07:08:28;;;;;;;4.05;1.10;;;24.90;90.90;;;;;;5031224;28;20036;-66
2023/08/21 07:10:54;;;;;;;4.65;1.13;;;24.90;91.00;;;;;;5031420;28;20025;-65
2023/08/21 07:13:20;;;;;;;4.15;1.20;;;24.90;90.90;;;;;;5029993;28;20041;-67
2023/08/21 07:15:46;;;;;;;6.95;1.30;;;24.90;90.90;;;;;;5031008;28;20543;-66
2023/08/21 07:18:13;;;;;;;3.17;1.20;;;24.90;90.90;;;;;;5031646;28;20029;-66
2023/08/21 07:20:39;;;;;;;6.95;1.38;;;24.90;90.90;;;;;;5031755;28;20040;-66
2023/08/21 07:23:05;;;;;;;5.50;1.10;;;24.90;90.80;;;;;;5030650;28;20048;-66
2023/08/21 07:25:30;;;;;;;9.02;1.42;;;24.90;90.80;;;;;;5031445;28;20387;-67
2023/08/21 07:27:56;;;;;;;7.88;1.25;;;24.90;90.80;;;;;;5031578;28;20025;-67
2023/08/21 07:30:22;;;;;;;8.98;1.30;;;24.90;90.60;;;;;;5031084;28;20025;-66
2023/08/21 07:32:49;;;;;;;7.18;0.82;;;25.10;90.40;;;;;;5030860;28;20033;-66
2023/08/21 07:35:15;;;;;;;7.35;1.33;;;25.10;89.80;;;;;;5030698;28;20087;-66
2023/08/21 07:37:45;;;;;;;7.95;1.65;;;25.10;89.90;;;;;;5030606;28;20021;-67
2023/08/21 07:40:11;;;;;;;7.13;1.50;;;25.10;89.20;;;;;;5030963;28;20060;-66
2023/08/21 07:42:37;;;;;;;8.10;1.48;;;25.10;89.90;;;;;;5030685;28;20037;-66
2023/08/21 07:45:02;;;;;;;8.82;1.33;;;25.10;90.00;;;;;;5030737;28;20029;-66
2023/08/21 07:47:28;;;;;;;6.90;1.25;;;25.10;89.20;;;;;;5030700;28;20052;-66
2023/08/21 07:49:54;;;;;;;7.15;1.60;;;25.10;89.10;;;;;;5030478;28;20061;-66
2023/08/21 07:52:20;;;;;;;7.75;1.38;;;25.00;89.50;;;;;;5029816;28;20050;-65
2023/08/21 07:54:46;;;;;;;8.65;1.25;;;25.10;89.50;;;;;;5030602;28;20068;-66
2023/08/21 07:57:12;;;;;;;7.28;1.42;;;25.00;89.10;;;;;;5029540;28;20514;-67
2023/08/21 07:59:38;;;;;;;5.85;1.10;;;25.00;88.90;;;;;;5029947;28;20022;-65
2023/08/21 08:02:04;;;;;;;5.22;1.20;;;25.00;88.30;;;;;;5030417;28;20026;-65
2023/08/21 08:04:30;;;;;;;6.50;1.23;;;25.00;89.10;;;;;;5030352;28;20022;-65
2023/08/21 08:06:56;;;;;;;8.55;2.03;;;25.00;88.50;;;;;;5030220;28;20022;-67
2023/08/21 08:09:22;;;;;;;9.30;1.73;;;25.00;88.20;;;;;;5030172;28;20033;-66
2023/08/21 08:11:47;;;;;;;9.55;1.33;;;25.00;88.20;;;;;;5029714;28;20108;-67
2023/08/21 08:14:13;;;;;;;7.38;1.50;;;25.00;88.70;;;;;;5029907;28;20025;-66
2023/08/21 08:16:39;;;;;;;6.18;1.10;;;25.00;88.70;;;;;;5029839;28;20029;-66
2023/08/21 08:19:04;;;;;;;3.65;0.80;;;25.10;89.00;;;;;;5029724;28;20022;-65
2023/08/21 08:21:30;;;;;;;5.88;1.48;;;25.00;89.00;;;;;;5029752;28;20029;-64
2023/08/21 08:23:57;;;;;;;5.90;1.67;;;25.00;89.00;;;;;;5028272;28;20029;-65
2023/08/21 08:26:22;;;;;;;4.70;1.27;;;25.00;89.00;;;;;;5029295;28;20032;-65
2023/08/21 08:28:48;;;;;;;4.80;1.50;;;25.00;88.70;;;;;;5029671;28;20029;-65
2023/08/21 08:31:17;;;;;;;6.85;1.10;;;25.00;88.90;;;;;;5029347;28;20032;-65
2023/08/21 08:33:43;;;;;;;8.60;1.92;;;25.00;89.10;;;;;;5029602;28;20628;-65
2023/08/21 08:36:09;;;;;;;10.50;1.95;;;25.10;88.80;;;;;;5029585;28;20034;-65
2023/08/21 08:38:34;;;;;;;7.15;1.25;;;25.00;88.50;;;;;;5029429;28;20063;-64
2023/08/21 08:41:04;;;;;;;7.47;1.98;;;25.00;88.50;;;;;;5029482;28;20087;-66
2023/08/21 08:43:31;;;;;;;;;;;25.10;88.50;;;;;;5029137;28;20098;-66
2023/08/21 08:45:58;;;;;;;5.93;1.30;;;25.00;86.60;;;;;;5029410;28;19912;-66
2023/08/21 08:48:24;;;;;;;7.82;1.75;;;25.10;87.30;;;;;;5028876;28;20751;-66
2023/08/21 08:50:51;;;;;;;6.53;1.48;;;25.00;87.50;;;;;;5029384;28;20028;-66
2023/08/21 08:53:18;;;;;;;8.52;1.60;;;25.00;86.00;;;;;;5029156;28;20103;-65
2023/08/21 08:55:45;;;;;;;7.97;1.60;;;25.00;85.50;;;;;;5029109;28;20136;-67
2023/08/21 08:58:11;;;;;;;4.38;1.30;;;25.00;86.40;;;;;;5028113;28;20041;-66
2023/08/21 09:00:37;;;;;;;5.43;1.33;;;25.10;86.50;;;;;;5032593;28;20032;-65
2023/08/21 09:03:03;;;;;;;8.32;1.92;;;25.00;86.50;;;;;;5032560;28;20483;-66
2023/08/21 09:05:29;;;;;;;9.00;1.27;;;25.10;85.80;;;;;;5029546;28;20029;-65
2023/08/21 09:08:11;;;;;;;10.20;1.77;;;25.10;86.30;;;;;;5032390;28;20029;-66
2023/08/21 09:10:38;;;;;;;6.55;1.60;;;25.10;86.10;;;;;;5031798;28;20032;-66
2023/08/21 09:13:19;;;;;;;6.03;1.35;;;25.10;86.50;;;;;;5031211;28;20064;-65
2023/08/21 09:15:52;;;;;;;4.47;1.15;;;25.10;84.70;;;;;;5031863;28;20041;-65
2023/08/21 09:18:18;;;;;;;7.93;1.85;;;25.00;85.70;;;;;;5032046;28;20104;-65
2023/08/21 09:20:44;;;;;;;6.05;1.20;;;25.10;85.90;;;;;;5029001;28;20480;-65
2023/08/21 09:23:14;;;;;;;9.48;1.38;;;25.10;85.60;;;;;;5029019;28;20053;-67
2023/08/21 09:25:40;;;;;;;10.57;1.48;;;25.30;85.40;;;;;;5030117;28;20052;-68
2023/08/21 09:28:08;;;;;;;9.15;1.63;;;25.40;85.70;;;;;;5030624;28;20509;-69
2023/08/21 09:31:06;;;;;;;6.93;1.60;;;25.40;85.80;;;;;;5029316;28;20045;-67
2023/08/21 09:33:31;;;;;;;10.48;1.98;;;25.40;85.30;;;;;;5027350;28;20046;-68
2023/08/21 09:35:57;;;;;;;8.07;1.48;;;25.40;85.80;;;;;;5029026;28;20017;-69
2023/08/21 09:38:22;;;;;;;6.85;1.30;;;25.40;85.60;;;;;;5031650;28;20021;-68
2023/08/21 09:40:54;;;;;;;6.65;1.30;;;25.60;85.30;;;;;;5031762;28;20029;-68
2023/08/21 09:43:22;;;;;;;5.43;1.42;;;25.70;84.60;;;;;;5033346;28;20411;-68
2023/08/21 09:45:57;;;;;;;6.50;1.67;;;25.90;84.00;;;;;;5032847;28;20065;-69
2023/08/21 09:48:27;;;;;;;5.90;1.40;;;26.20;82.30;;;;;;5032528;28;20030;-68
2023/08/21 09:50:53;;;;;;;5.20;1.50;;;26.70;80.90;;;;;;5032563;28;20032;-68
2023/08/21 09:53:22;;;;;;;6.78;1.48;;;27.20;80.10;;;;;;5032782;28;20053;-68
2023/08/21 09:55:52;;;;;;;8.35;1.25;;;27.70;79.50;;;;;;5032671;28;20087;-68
2023/08/21 09:58:19;;;;;;;;;;;27.90;76.20;;;;;;5032802;28;20026;-68
2023/08/21 10:00:45;;;;;;;6.07;1.88;;;28.20;77.00;;;;;;5032583;28;19909;-69
2023/08/21 10:03:11;;;;;;;7.93;1.40;;;28.60;75.30;;;;;;5032505;28;20044;-68
2023/08/21 10:05:39;;;;;;;7.38;1.58;;;29.10;74.20;;;;;;5032606;28;20040;-68
2023/08/21 10:08:06;;;;;;;11.50;1.77;;;29.40;72.90;;;;;;5032839;28;20026;-68
2023/08/21 10:10:36;;;;;;;14.80;1.95;;;29.80;70.80;;;;;;5031828;28;20442;-68
2023/08/21 10:13:03;;;;;;;7.93;1.50;;;29.90;69.60;;;;;;5032113;28;20084;-67
2023/08/21 10:15:30;;;;;;;9.50;2.25;;;29.40;70.50;;;;;;5032426;28;20112;-67
2023/08/21 10:17:57;;;;;;;14.93;2.63;;;29.20;71.10;;;;;;5031658;28;20072;-67
2023/08/21 10:20:25;;;;;;;12.55;2.17;;;28.90;72.00;;;;;;5032188;28;20028;-67
2023/08/21 10:22:54;;;;;;;8.02;2.03;;;28.60;72.70;;;;;;5032155;28;20049;-67
2023/08/21 10:25:22;;;;;;;8.68;1.60;;;28.40;73.10;;;;;;5031951;28;20070;-67
2023/08/21 10:27:53;;;;;;;8.75;1.67;;;28.20;74.00;;;;;;5031961;28;20078;-67
2023/08/21 10:30:26;;;;;;;7.75;1.23;;;28.10;74.90;;;;;;5032183;28;20049;-67
2023/08/21 10:32:54;;;;;;;7.32;1.58;;;27.80;75.20;;;;;;5031717;28;20495;-67
2023/08/21 10:35:21;;;;;;;7.53;1.90;;;27.70;76.10;;;;;;5032424;28;20018;-67
2023/08/21 10:38:15;;;;;;;7.63;1.45;;;27.60;76.50;;;;;;5031989;28;20034;-67
2023/08/21 10:41:01;;;;;;;6.50;1.50;;;27.50;77.10;;;;;;5031790;28;20040;-67
2023/08/21 10:43:41;;;;;;;12.73;1.77;;;27.30;77.80;;;;;;5031699;28;20108;-67
2023/08/21 10:46:08;;;;;;;8.30;1.83;;;27.10;78.20;;;;;;5032088;28;20037;-66
2023/08/21 10:48:34;;;;;;;10.05;1.88;;;27.10;78.70;;;;;;5030233;28;20021;-66
2023/08/21 10:51:07;;;;;;;9.15;1.90;;;27.20;78.20;;;;;;5032064;28;20053;-66
2023/08/21 10:53:33;;;;;;;8.45;2.00;;;27.10;78.10;;;;;;5031070;28;20045;-66
2023/08/21 10:56:03;;;;;;;8.35;1.70;;;27.00;78.00;;;;;;5032300;28;20033;-66
2023/08/21 10:58:42;;;;;;;6.88;1.60;;;27.10;77.90;;;;;;5030782;28;20037;-66
2023/08/21 11:01:07;;;;;;;7.90;1.42;;;27.10;78.30;;;;;;5031086;28;20035;-67
2023/08/21 11:03:33;;;;;;;7.97;1.90;;;27.10;78.10;;;;;;5031756;28;20439;-66
2023/08/21 11:06:07;;;;;;;5.53;1.75;;;27.00;78.10;;;;;;5031886;28;20468;-66
2023/08/21 11:08:36;;;;;;;5.82;1.58;;;27.00;78.40;;;;;;5031458;28;20041;-66
2023/08/21 11:11:03;;;;;;;8.73;1.65;;;27.00;78.70;;;;;;5031155;28;20068;-66
2023/08/21 11:13:29;;;;;;;5.43;1.20;;;26.90;78.60;;;;;;5030934;28;20037;-65
2023/08/21 11:16:04;;;;;;;8.77;1.73;;;26.90;79.00;;;;;;5030805;28;20029;-66
2023/08/21 11:18:40;;;;;;;9.18;1.90;;;26.90;79.10;;;;;;5031251;28;20101;-66
2023/08/21 11:21:08;;;;;;;5.72;1.73;;;26.90;79.20;;;;;;5031170;28;20025;-66
2023/08/21 11:23:41;;;;;;;5.28;1.48;;;26.90;79.50;;;;;;5031349;28;20350;-66
2023/08/21 11:26:10;;;;;;;7.90;1.60;;;26.90;79.50;;;;;;5031100;28;20026;-66
2023/08/21 11:28:35;;;;;;;6.63;1.60;;;26.90;79.70;;;;;;5031261;28;20025;-66
2023/08/21 11:31:01;;;;;;;9.82;2.22;;;26.90;79.80;;;;;;5030944;28;20143;-66
2023/08/21 11:33:28;;;;;;;4.28;1.02;;;26.90;79.80;;;;;;5030917;28;20051;-66
2023/08/21 11:35:57;;;;;;;6.05;1.20;;;26.90;79.80;;;;;;5030962;28;20561;-65
2023/08/21 11:38:24;;;;;;;9.02;2.17;;;26.90;79.80;;;;;;5031365;28;20022;-68
2023/08/21 11:40:54;;;;;;;12.40;1.48;;;26.80;80.00;;;;;;5031337;28;20071;-67
2023/08/21 11:43:19;;;;;;;9.95;2.03;;;26.80;80.10;;;;;;5031089;28;20148;-68
2023/08/21 11:45:46;;;;;;;10.32;2.30;;;26.80;80.20;;;;;;5031545;28;20133;-66
2023/08/21 11:48:11;;;;;;;9.73;2.03;;;26.90;80.10;;;;;;5031184;28;20026;-67
2023/08/21 11:50:37;;;;;;;7.78;1.55;;;26.90;80.00;;;;;;5029884;28;20032;-66
2023/08/21 11:53:03;;;;;;;7.65;1.70;;;26.90;79.80;;;;;;5030909;28;20408;-67
2023/08/21 11:55:29;;;;;;;9.00;1.48;;;26.90;79.70;;;;;;5031718;28;20034;-67
2023/08/21 11:57:55;;;;;;;6.97;1.50;;;26.90;79.50;;;;;;5031160;28;20029;-68
2023/08/21 12:00:28;;;;;;;7.07;1.63;;;26.90;79.40;;;;;;5031368;28;20100;-67
2023/08/21 12:02:59;;;;;;;7.75;1.70;;;27.00;79.10;;;;;;5030973;28;20033;-67
2023/08/21 12:05:27;;;;;;;6.78;1.67;;;27.30;78.30;;;;;;5031438;28;20075;-67
2023/08/21 12:07:53;;;;;;;4.38;1.40;;;28.00;75.90;;;;;;5030651;28;20032;-67
2023/08/21 12:10:26;;;;;;;9.02;2.78;;;28.80;73.40;;;;;;5030632;28;20021;-67
2023/08/21 12:12:55;;;;;;;6.85;1.70;;;29.20;71.20;;;;;;5030990;28;20045;-67
2023/08/21 12:15:21;;;;;;;5.30;1.33;;;29.60;70.90;;;;;;5030953;28;20025;-68
2023/08/21 12:17:46;;;;;;;7.13;1.85;;;29.30;71.80;;;;;;5031122;28;20435;-70
2023/08/21 12:20:12;;;;;;;5.72;1.35;;;28.90;70.90;;;;;;5030494;28;20415;-70
2023/08/21 12:22:39;;;;;;;7.38;1.10;;;29.20;70.60;;;;;;5031255;28;20025;-70
2023/08/21 12:25:05;;;;;;;5.45;1.30;;;29.10;71.20;;;;;;5029797;28;20035;-71
2023/08/21 12:27:31;;;;;;;4.60;1.23;;;29.00;71.40;;;;;;5030680;28;20112;-71
2023/08/21 12:29:57;;;;;;;5.90;1.27;;;29.20;71.10;;;;;;5031145;28;20120;-71
2023/08/21 12:32:22;;;;;;;4.93;1.85;;;29.90;69.10;;;;;;5031021;28;20030;-70
2023/08/21 12:34:48;;;;;;;5.93;1.45;;;30.80;66.70;;;;;;5029194;28;20381;-71
2023/08/21 12:37:14;;;;;;;5.00;1.13;;;31.20;64.90;;;;;;5030472;28;20105;-69
2023/08/21 12:39:48;;;;;;;6.93;1.13;;;31.50;63.90;;;;;;5029320;28;20053;-71
2023/08/21 12:42:14;;;;;;;6.18;1.20;;;31.80;63.60;;;;;;5028821;28;20107;-71
2023/08/21 12:44:40;;;;;;;6.82;1.20;;;32.10;62.50;;;;;;5028239;28;20475;-71